createdAt,value
2023-02-03T05:06:08.241Z,101209.78
2023-02-03T05:09:10.909Z,101209.78
2023-02-03T05:12:13.024Z,101222.53
2023-02-03T05:15:15.524Z,101217.19
2023-02-03T05:18:17.585Z,101230.84
2023-02-03T05:21:20.224Z,101232.59
2023-02-03T05:24:22.295Z,101229.09
2023-02-03T05:27:24.656Z,101237.88
2023-02-03T05:30:27.171Z,101242.50
2023-02-03T05:33:30.196Z,101259.38
2023-02-03T05:36:32.297Z,101253.87
2023-02-03T05:39:34.630Z,101247.28
2023-02-03T05:42:36.703Z,101239.91
2023-02-03T05:45:39.459Z,101245.09
2023-02-03T05:48:41.588Z,101237.19
2023-02-03T05:51:43.944Z,101245.50
2023-02-03T05:54:46.002Z,101243.03
2023-02-03T05:57:48.364Z,101254.47
2023-02-03T06:00:50.474Z,101253.41
2023-02-03T06:03:52.984Z,101255.19
2023-02-03T06:06:55.110Z,101251.25
2023-02-03T06:09:57.944Z,101239.50
2023-02-03T06:13:00.518Z,101242.53
2023-02-03T06:16:03.282Z,101248.28
2023-02-03T06:19:05.459Z,101247.91
2023-02-03T06:22:07.985Z,101243.72
2023-02-03T06:25:13.057Z,101243.53
2023-02-03T06:28:16.682Z,101262.78
2023-02-03T06:31:18.994Z,101260.94
2023-02-03T06:34:21.475Z,101266.31
2023-02-03T06:37:24.837Z,101261.81
2023-02-03T06:40:27.786Z,101266.25
2023-02-03T06:43:30.386Z,101271.94
2023-02-03T06:46:33.850Z,101283.91
2023-02-03T06:49:36.081Z,101286.56
2023-02-03T06:52:38.516Z,101275.19
2023-02-03T06:55:40.757Z,101274.75
2023-02-03T06:58:44.401Z,101272.91
2023-02-03T07:01:46.569Z,101272.81
2023-02-03T07:04:48.983Z,101268.31
2023-02-03T07:07:51.785Z,101262.34
2023-02-03T07:10:55.063Z,101246.34
2023-02-03T07:13:57.476Z,101253.13
2023-02-03T07:16:59.879Z,101256.81
2023-02-03T07:20:02.029Z,101241.47
2023-02-03T07:23:04.442Z,101246.09
2023-02-03T07:26:08.030Z,101249.41
2023-02-03T07:29:10.385Z,101242.72
2023-02-03T07:32:12.603Z,101242.34
2023-02-03T07:35:15.220Z,101254.25
2023-02-03T07:38:17.349Z,101251.22
2023-02-03T07:41:21.095Z,101263.72
2023-02-03T07:44:23.222Z,101267.00
2023-02-03T07:47:25.603Z,101281.88
2023-02-03T07:50:28.165Z,101271.75
2023-02-03T07:53:31.910Z,101283.06
2023-02-03T07:56:34.194Z,101277.91
2023-02-03T07:59:36.542Z,101287.78
2023-02-03T08:02:41.664Z,101287.03
2023-02-03T08:05:44.031Z,101298.69
2023-02-03T08:08:46.151Z,101308.50
2023-02-03T08:11:48.635Z,101297.87
2023-02-03T08:14:50.710Z,101286.22
2023-02-03T08:17:53.287Z,101286.44
2023-02-03T08:20:55.509Z,101282.44
2023-02-03T08:23:57.927Z,101286.00
2023-02-03T08:27:01.178Z,101277.87
2023-02-03T08:30:04.489Z,101272.84
2023-02-03T08:33:06.650Z,101283.47
2023-02-03T08:36:11.183Z,101279.38
2023-02-03T08:39:13.405Z,101286.94
2023-02-03T08:42:15.969Z,101289.97
2023-02-03T08:45:18.158Z,101299.06
2023-02-03T08:48:20.510Z,101293.88
2023-02-03T08:51:23.108Z,101300.16
2023-02-03T08:54:26.159Z,101314.41
2023-02-03T08:57:32.409Z,101307.59
2023-02-03T09:00:34.796Z,101304.37
2023-02-03T09:03:37.827Z,101302.88
2023-02-03T09:06:40.329Z,101307.69
2023-02-03T09:09:42.618Z,101321.34
2023-02-03T09:12:45.030Z,101310.47
2023-02-03T09:15:47.517Z,101312.69
2023-02-03T09:18:50.648Z,101308.94
2023-02-03T09:21:52.762Z,101321.59
2023-02-03T09:24:55.316Z,101315.53
2023-02-03T09:27:57.490Z,101311.72
2023-02-03T09:31:05.062Z,101304.06
2023-02-03T09:34:08.114Z,101296.19
2023-02-03T09:37:10.557Z,101295.47
2023-02-03T09:40:34.376Z,101286.09
2023-02-03T09:43:56.782Z,101282.88
2023-02-03T09:47:02.688Z,101276.28
2023-02-03T09:50:12.508Z,101263.97
2023-02-03T09:53:45.300Z,101256.78
2023-02-03T09:56:52.890Z,101242.31
2023-02-03T09:59:58.195Z,101238.22
2023-02-03T10:03:26.938Z,101234.66
2023-02-03T10:06:45.236Z,101220.78
2023-02-03T10:10:05.193Z,101222.50
2023-02-03T10:13:26.922Z,101218.50
2023-02-03T10:16:49.572Z,101211.69
2023-02-03T10:20:12.079Z,101198.16
2023-02-03T10:23:18.310Z,101189.09
2023-02-03T10:26:26.180Z,101184.16
2023-02-03T10:29:35.980Z,101166.97
2023-02-03T10:32:38.425Z,101159.37
2023-02-03T10:35:53.203Z,101154.00
2023-02-03T10:39:15.368Z,101153.31
2023-02-03T10:42:19.611Z,101148.41
2023-02-03T10:45:22.221Z,101144.28
2023-02-03T10:48:25.579Z,101138.09
2023-02-03T10:51:53.029Z,101131.38
2023-02-03T10:54:56.384Z,101120.53
2023-02-03T10:58:10.504Z,101112.28
2023-02-03T11:01:15.877Z,101114.25
2023-02-03T11:04:27.378Z,101090.59
2023-02-03T11:07:30.809Z,101093.19
2023-02-03T11:10:40.540Z,101085.28
2023-02-03T11:13:42.668Z,101077.75
2023-02-03T11:16:47.230Z,101076.66
2023-02-03T11:19:51.865Z,101053.03
2023-02-03T11:22:54.330Z,101050.28
2023-02-03T11:25:56.550Z,101066.19
2023-02-03T11:29:02.012Z,101040.69
2023-02-03T11:32:37.666Z,101049.91
2023-02-03T11:35:40.527Z,101038.53
2023-02-03T11:38:44.690Z,101030.19
2023-02-03T11:41:48.684Z,101017.16
2023-02-03T11:44:51.697Z,101020.03
2023-02-03T11:47:57.135Z,101011.56
2023-02-03T11:51:01.920Z,101005.31
2023-02-03T11:54:53.545Z,100994.38
2023-02-03T11:58:04.635Z,100978.53
2023-02-03T12:01:28.844Z,100971.16
2023-02-03T12:04:53.025Z,100959.09
2023-02-03T12:08:39.713Z,100957.09
2023-02-03T12:11:57.653Z,100937.12
2023-02-03T12:15:07.144Z,100934.81
2023-02-03T12:18:24.173Z,100923.50
2023-02-03T12:21:47.491Z,100919.59
2023-02-03T12:25:03.720Z,100905.72
2023-02-03T12:28:34.273Z,100898.31
2023-02-03T12:31:44.217Z,100889.59
2023-02-03T12:34:55.129Z,100882.66
2023-02-03T12:38:27.237Z,100865.81
2023-02-03T12:41:36.116Z,100855.19
2023-02-03T12:44:52.234Z,100840.09
2023-02-03T12:48:16.102Z,100845.19
2023-02-03T12:51:29.605Z,100826.47
2023-02-03T12:54:45.558Z,100818.88
2023-02-03T12:57:54.652Z,100810.00
2023-02-03T13:01:03.655Z,100809.56
2023-02-03T13:04:25.622Z,100796.19
2023-02-03T13:07:37.223Z,100783.38
2023-02-03T13:11:14.374Z,100772.97
2023-02-03T13:14:26.455Z,100763.03
2023-02-03T13:17:43.659Z,100755.19
2023-02-03T13:20:46.070Z,100754.88
2023-02-03T13:23:50.312Z,100743.34
2023-02-03T13:27:04.754Z,100735.59
2023-02-03T13:30:17.993Z,100719.69
2023-02-03T13:33:44.462Z,100713.47
2023-02-03T13:36:58.822Z,100699.84
2023-02-03T13:40:10.247Z,100699.25
2023-02-03T13:43:32.209Z,100687.28
2023-02-03T13:46:40.269Z,100692.47
2023-02-03T13:49:46.667Z,100681.97
2023-02-03T13:52:57.463Z,100666.72
2023-02-03T13:56:03.483Z,100654.94
2023-02-03T13:59:14.776Z,100661.16
2023-02-03T14:02:20.098Z,100651.00
2023-02-03T14:05:42.194Z,100642.25
2023-02-03T14:08:49.324Z,100644.31
2023-02-03T14:11:52.701Z,100640.50
2023-02-03T14:14:54.748Z,100625.72
2023-02-03T14:18:02.867Z,100628.97
2023-02-03T14:21:16.034Z,100622.59
2023-02-03T14:24:19.422Z,100620.97
2023-02-03T14:27:24.886Z,100609.63
2023-02-03T14:30:27.477Z,100608.03
2023-02-03T14:34:13.030Z,100601.25
2023-02-03T14:37:35.847Z,100597.75
2023-02-03T14:40:49.955Z,100599.37
2023-02-03T14:44:14.745Z,100592.91
2023-02-03T14:47:34.988Z,100581.81
2023-02-03T14:50:58.131Z,100571.19
2023-02-03T14:54:34.974Z,100569.22
2023-02-03T14:57:52.278Z,100561.75
2023-02-03T15:00:55.261Z,100559.66
2023-02-03T15:04:27.337Z,100560.16
2023-02-03T15:07:37.967Z,100552.66
2023-02-03T15:10:42.107Z,100546.06
2023-02-03T15:13:44.277Z,100543.72
2023-02-03T15:16:52.604Z,100531.09
2023-02-03T15:19:54.897Z,100527.63
2023-02-03T15:22:57.511Z,100520.28
2023-02-03T15:26:02.027Z,100531.03
2023-02-03T15:29:07.072Z,100518.13
2023-02-03T15:32:17.184Z,100512.97
2023-02-03T15:35:20.409Z,100495.34
2023-02-03T15:38:31.291Z,100499.28
2023-02-03T15:41:34.220Z,100496.44
2023-02-03T15:44:53.611Z,100492.03
2023-02-03T15:48:02.929Z,100485.09
2023-02-03T15:51:10.605Z,100477.75
2023-02-03T15:54:14.916Z,100485.31
2023-02-03T15:57:28.147Z,100478.22
2023-02-03T16:00:36.336Z,100482.50
2023-02-03T16:03:54.737Z,100473.94
2023-02-03T16:06:57.794Z,100474.69
2023-02-03T16:10:00.715Z,100474.44
2023-02-03T16:13:24.532Z,100477.25
2023-02-03T16:16:55.341Z,100474.06
2023-02-03T16:20:22.075Z,100467.75
2023-02-03T16:23:27.806Z,100451.56
2023-02-03T16:26:31.957Z,100443.97
2023-02-03T16:29:55.734Z,100435.53
2023-02-03T16:33:31.450Z,100440.78
